sensor_id;sensor_type;location;lat;lon;timestamp;temperature;humidity
38866;DHT22;62686;48.984;8.394;2024-02-15T00:02:02;10.90;99.90
38866;DHT22;62686;48.984;8.394;2024-02-15T00:04:31;10.80;99.90
38866;DHT22;62686;48.984;8.394;2024-02-15T00:07:00;10.70;99.90
38866;DHT22;62686;48.984;8.394;2024-02-15T00:09:30;10.70;99.90
38866;DHT22;62686;48.984;8.394;2024-02-15T00:11:58;10.70;99.90
38866;DHT22;62686;48.984;8.394;2024-02-15T00:14:27;10.70;99.90
38866;DHT22;62686;48.984;8.394;2024-02-15T00:16:56;10.70;99.90
38866;DHT22;62686;48.984;8.394;2024-02-15T00:19:24;10.80;99.90
38866;DHT22;62686;48.984;8.394;2024-02-15T00:21:56;10.80;99.90
38866;DHT22;62686;48.984;8.394;2024-02-15T00:24:25;10.80;99.90
38866;DHT22;62686;48.984;8.394;2024-02-15T00:26:55;10.70;99.90
38866;DHT22;62686;48.984;8.394;2024-02-15T00:29:23;10.70;99.90
38866;DHT22;62686;48.984;8.394;2024-02-15T00:31:55;10.60;99.90
38866;DHT22;62686;48.984;8.394;2024-02-15T00:34:23;10.50;99.90
38866;DHT22;62686;48.984;8.394;2024-02-15T00:36:53;10.40;99.90
38866;DHT22;62686;48.984;8.394;2024-02-15T00:39:21;10.20;99.90
38866;DHT22;62686;48.984;8.394;2024-02-15T00:41:50;10.10;99.90
38866;DHT22;62686;48.984;8.394;2024-02-15T00:44:20;9.90;99.90
38866;DHT22;62686;48.984;8.394;2024-02-15T00:46:48;9.80;99.90
38866;DHT22;62686;48.984;8.394;2024-02-15T00:49:17;9.70;99.90
38866;DHT22;62686;48.984;8.394;2024-02-15T00:51:47;9.70;99.90
38866;DHT22;62686;48.984;8.394;2024-02-15T00:54:16;9.70;99.90
38866;DHT22;62686;48.984;8.394;2024-02-15T00:56:44;9.70;99.90
38866;DHT22;62686;48.984;8.394;2024-02-15T00:59:13;9.80;99.90
38866;DHT22;62686;48.984;8.394;2024-02-15T01:01:42;9.80;99.90
38866;DHT22;62686;48.984;8.394;2024-02-15T01:04:11;9.90;99.90
38866;DHT22;62686;48.984;8.394;2024-02-15T01:06:40;9.90;99.90
38866;DHT22;62686;48.984;8.394;2024-02-15T01:09:10;9.90;99.90
38866;DHT22;62686;48.984;8.394;2024-02-15T01:11:39;9.80;99.90
38866;DHT22;62686;48.984;8.394;2024-02-15T01:14:08;9.70;99.90
38866;DHT22;62686;48.984;8.394;2024-02-15T01:16:37;9.50;99.90
38866;DHT22;62686;48.984;8.394;2024-02-15T01:19:06;9.30;99.90
38866;DHT22;62686;48.984;8.394;2024-02-15T01:21:35;9.20;99.90
38866;DHT22;62686;48.984;8.394;2024-02-15T01:24:04;9.00;99.90
38866;DHT22;62686;48.984;8.394;2024-02-15T01:26:34;9.00;99.90
38866;DHT22;62686;48.984;8.394;2024-02-15T01:29:02;8.90;99.90
38866;DHT22;62686;48.984;8.394;2024-02-15T01:31:31;8.80;99.90
38866;DHT22;62686;48.984;8.394;2024-02-15T01:33:59;8.90;99.90
38866;DHT22;62686;48.984;8.394;2024-02-15T01:36:31;8.90;99.90
38866;DHT22;62686;48.984;8.394;2024-02-15T01:38:59;9.00;99.90
38866;DHT22;62686;48.984;8.394;2024-02-15T01:41:27;9.10;99.90
38866;DHT22;62686;48.984;8.394;2024-02-15T01:43:56;9.20;99.90
38866;DHT22;62686;48.984;8.394;2024-02-15T01:46:24;9.30;99.90
38866;DHT22;62686;48.984;8.394;2024-02-15T01:48:53;9.40;99.90
38866;DHT22;62686;48.984;8.394;2024-02-15T01:51:23;9.50;99.90
38866;DHT22;62686;48.984;8.394;2024-02-15T01:53:55;9.60;99.90
38866;DHT22;62686;48.984;8.394;2024-02-15T01:56:24;9.60;99.90
38866;DHT22;62686;48.984;8.394;2024-02-15T01:58:55;9.70;99.90
38866;DHT22;62686;48.984;8.394;2024-02-15T02:01:24;9.80;99.90
38866;DHT22;62686;48.984;8.394;2024-02-15T02:03:54;9.90;99.90
38866;DHT22;62686;48.984;8.394;2024-02-15T02:06:24;10.00;99.90
38866;DHT22;62686;48.984;8.394;2024-02-15T02:08:54;10.00;99.90
38866;DHT22;62686;48.984;8.394;2024-02-15T02:11:23;10.00;99.90
38866;DHT22;62686;48.984;8.394;2024-02-15T02:13:52;10.00;99.90
38866;DHT22;62686;48.984;8.394;2024-02-15T02:16:26;10.10;99.90
38866;DHT22;62686;48.984;8.394;2024-02-15T02:18:56;10.10;99.90
38866;DHT22;62686;48.984;8.394;2024-02-15T02:21:25;10.10;99.90
38866;DHT22;62686;48.984;8.394;2024-02-15T02:23:57;10.10;99.90
38866;DHT22;62686;48.984;8.394;2024-02-15T02:26:28;10.10;99.90
38866;DHT22;62686;48.984;8.394;2024-02-15T02:28:58;10.10;99.90
38866;DHT22;62686;48.984;8.394;2024-02-15T02:31:26;10.10;99.90
38866;DHT22;62686;48.984;8.394;2024-02-15T02:33:55;10.10;99.90
38866;DHT22;62686;48.984;8.394;2024-02-15T02:36:25;10.20;99.90
38866;DHT22;62686;48.984;8.394;2024-02-15T02:38:56;10.20;99.90
38866;DHT22;62686;48.984;8.394;2024-02-15T02:41:28;10.20;99.90
38866;DHT22;62686;48.984;8.394;2024-02-15T02:43:57;10.20;99.90
38866;DHT22;62686;48.984;8.394;2024-02-15T02:46:25;10.20;99.90
38866;DHT22;62686;48.984;8.394;2024-02-15T02:48:54;10.20;99.90
38866;DHT22;62686;48.984;8.394;2024-02-15T02:51:22;10.30;99.90
38866;DHT22;62686;48.984;8.394;2024-02-15T02:53:51;10.30;99.90
38866;DHT22;62686;48.984;8.394;2024-02-15T02:56:19;10.30;99.90
38866;DHT22;62686;48.984;8.394;2024-02-15T02:58:49;10.40;99.90
38866;DHT22;62686;48.984;8.394;2024-02-15T03:01:19;10.30;99.90
38866;DHT22;62686;48.984;8.394;2024-02-15T03:03:47;10.30;99.90
38866;DHT22;62686;48.984;8.394;2024-02-15T03:06:16;10.40;99.90
38866;DHT22;62686;48.984;8.394;2024-02-15T05:28:45;10.10;99.90
38866;DHT22;62686;48.984;8.394;2024-02-15T05:31:15;10.20;99.90
38866;DHT22;62686;48.984;8.394;2024-02-15T05:33:44;10.10;99.90
38866;DHT22;62686;48.984;8.394;2024-02-15T05:36:15;10.10;99.90
38866;DHT22;62686;48.984;8.394;2024-02-15T05:38:49;10.10;99.90
38866;DHT22;62686;48.984;8.394;2024-02-15T05:41:19;10.00;99.90
38866;DHT22;62686;48.984;8.394;2024-02-15T05:43:50;10.00;99.90
38866;DHT22;62686;48.984;8.394;2024-02-15T05:46:20;10.00;99.90
38866;DHT22;62686;48.984;8.394;2024-02-15T05:48:50;9.90;99.90
38866;DHT22;62686;48.984;8.394;2024-02-15T05:51:19;9.90;99.90
38866;DHT22;62686;48.984;8.394;2024-02-15T05:53:48;9.90;99.90
38866;DHT22;62686;48.984;8.394;2024-02-15T05:56:17;9.90;99.90
38866;DHT22;62686;48.984;8.394;2024-02-15T05:58:46;9.90;99.90
38866;DHT22;62686;48.984;8.394;2024-02-15T06:01:16;9.90;99.90
38866;DHT22;62686;48.984;8.394;2024-02-15T06:03:45;9.80;99.90
38866;DHT22;62686;48.984;8.394;2024-02-15T06:06:15;9.80;99.90
38866;DHT22;62686;48.984;8.394;2024-02-15T06:08:46;9.80;99.90
38866;DHT22;62686;48.984;8.394;2024-02-15T06:11:19;9.80;99.90
38866;DHT22;62686;48.984;8.394;2024-02-15T06:13:48;9.80;99.90
38866;DHT22;62686;48.984;8.394;2024-02-15T06:16:18;9.80;99.90
38866;DHT22;62686;48.984;8.394;2024-02-15T06:18:47;9.80;99.90
38866;DHT22;62686;48.984;8.394;2024-02-15T06:21:16;9.80;99.90
38866;DHT22;62686;48.984;8.394;2024-02-15T06:23:45;9.80;99.90
38866;DHT22;62686;48.984;8.394;2024-02-15T06:26:15;9.80;99.90
38866;DHT22;62686;48.984;8.394;2024-02-15T06:37:39;9.60;99.90
38866;DHT22;62686;48.984;8.394;2024-02-15T06:45:50;9.30;99.90
38866;DHT22;62686;48.984;8.394;2024-02-15T06:48:18;9.20;99.90
38866;DHT22;62686;48.984;8.394;2024-02-15T06:58:49;9.00;99.90
38866;DHT22;62686;48.984;8.394;2024-02-15T07:01:18;8.90;99.90
38866;DHT22;62686;48.984;8.394;2024-02-15T07:03:47;8.80;99.90
38866;DHT22;62686;48.984;8.394;2024-02-15T07:06:15;8.80;99.90
38866;DHT22;62686;48.984;8.394;2024-02-15T07:08:44;8.90;99.90
38866;DHT22;62686;48.984;8.394;2024-02-15T07:11:14;8.90;99.90
38866;DHT22;62686;48.984;8.394;2024-02-15T07:13:43;8.90;99.90
38866;DHT22;62686;48.984;8.394;2024-02-15T07:16:11;9.00;99.90
38866;DHT22;62686;48.984;8.394;2024-02-15T07:18:40;9.10;99.90
38866;DHT22;62686;48.984;8.394;2024-02-15T07:21:10;9.10;99.90
38866;DHT22;62686;48.984;8.394;2024-02-15T07:23:43;9.20;99.90
38866;DHT22;62686;48.984;8.394;2024-02-15T07:26:14;9.40;99.90
38866;DHT22;62686;48.984;8.394;2024-02-15T07:28:45;9.50;99.90
38866;DHT22;62686;48.984;8.394;2024-02-15T07:31:14;9.60;99.90
38866;DHT22;62686;48.984;8.394;2024-02-15T07:33:43;9.70;99.90
38866;DHT22;62686;48.984;8.394;2024-02-15T07:36:12;9.80;99.90
38866;DHT22;62686;48.984;8.394;2024-02-15T07:38:40;10.00;99.90
38866;DHT22;62686;48.984;8.394;2024-02-15T07:41:09;10.00;99.90
38866;DHT22;62686;48.984;8.394;2024-02-15T07:43:38;10.10;99.90
38866;DHT22;62686;48.984;8.394;2024-02-15T07:46:11;10.20;99.90
38866;DHT22;62686;48.984;8.394;2024-02-15T08:37:26;11.40;99.90
38866;DHT22;62686;48.984;8.394;2024-02-15T08:39:54;11.60;99.90
38866;DHT22;62686;48.984;8.394;2024-02-15T08:42:26;11.70;99.90
38866;DHT22;62686;48.984;8.394;2024-02-15T08:47:37;11.90;99.90
38866;DHT22;62686;48.984;8.394;2024-02-15T09:04:06;12.50;99.90
38866;DHT22;62686;48.984;8.394;2024-02-15T09:20:07;13.20;99.90
38866;DHT22;62686;48.984;8.394;2024-02-15T09:22:42;13.30;99.90
38866;DHT22;62686;48.984;8.394;2024-02-15T09:25:13;13.30;99.90
38866;DHT22;62686;48.984;8.394;2024-02-15T09:30:17;13.50;99.90
38866;DHT22;62686;48.984;8.394;2024-02-15T09:32:46;13.60;99.90
38866;DHT22;62686;48.984;8.394;2024-02-15T09:35:16;13.70;99.90
38866;DHT22;62686;48.984;8.394;2024-02-15T09:37:47;13.70;99.90
38866;DHT22;62686;48.984;8.394;2024-02-15T09:40:17;13.80;99.90
38866;DHT22;62686;48.984;8.394;2024-02-15T09:42:47;13.90;99.90
38866;DHT22;62686;48.984;8.394;2024-02-15T09:45:16;14.00;99.90
38866;DHT22;62686;48.984;8.394;2024-02-15T09:47:45;14.10;99.90
38866;DHT22;62686;48.984;8.394;2024-02-15T09:50:18;14.30;99.90
38866;DHT22;62686;48.984;8.394;2024-02-15T09:52:49;14.40;99.90
38866;DHT22;62686;48.984;8.394;2024-02-15T09:55:20;14.50;99.90
38866;DHT22;62686;48.984;8.394;2024-02-15T09:57:50;14.70;99.90
38866;DHT22;62686;48.984;8.394;2024-02-15T10:00:19;15.40;99.90
38866;DHT22;62686;48.984;8.394;2024-02-15T10:02:50;16.30;99.90
38866;DHT22;62686;48.984;8.394;2024-02-15T10:05:21;17.20;99.90
38866;DHT22;62686;48.984;8.394;2024-02-15T10:07:50;17.90;99.90
38866;DHT22;62686;48.984;8.394;2024-02-15T10:10:20;17.90;99.90
38866;DHT22;62686;48.984;8.394;2024-02-15T10:12:50;17.60;99.90
38866;DHT22;62686;48.984;8.394;2024-02-15T10:15:28;17.70;99.90
38866;DHT22;62686;48.984;8.394;2024-02-15T10:17:59;17.50;99.90
38866;DHT22;62686;48.984;8.394;2024-02-15T10:20:30;17.30;99.90
38866;DHT22;62686;48.984;8.394;2024-02-15T10:23:10;16.90;99.90
38866;DHT22;62686;48.984;8.394;2024-02-15T10:25:40;16.80;99.90
38866;DHT22;62686;48.984;8.394;2024-02-15T10:28:10;17.00;99.90
38866;DHT22;62686;48.984;8.394;2024-02-15T10:30:40;16.90;99.90
38866;DHT22;62686;48.984;8.394;2024-02-15T10:33:10;16.90;99.90
38866;DHT22;62686;48.984;8.394;2024-02-15T10:35:40;17.00;99.90
38866;DHT22;62686;48.984;8.394;2024-02-15T10:38:09;16.80;99.90
38866;DHT22;62686;48.984;8.394;2024-02-15T10:40:41;16.70;99.90
38866;DHT22;62686;48.984;8.394;2024-02-15T10:43:10;16.90;99.90
38866;DHT22;62686;48.984;8.394;2024-02-15T10:45:40;16.80;99.90
38866;DHT22;62686;48.984;8.394;2024-02-15T10:48:09;16.80;99.90
38866;DHT22;62686;48.984;8.394;2024-02-15T10:50:41;17.10;99.90
38866;DHT22;62686;48.984;8.394;2024-02-15T10:53:18;17.20;99.90
38866;DHT22;62686;48.984;8.394;2024-02-15T10:55:59;17.40;99.90
38866;DHT22;62686;48.984;8.394;2024-02-15T10:58:33;17.60;99.90
38866;DHT22;62686;48.984;8.394;2024-02-15T11:01:10;17.70;99.90
38866;DHT22;62686;48.984;8.394;2024-02-15T11:03:59;17.70;99.90
38866;DHT22;62686;48.984;8.394;2024-02-15T11:06:30;17.50;99.90
38866;DHT22;62686;48.984;8.394;2024-02-15T11:09:02;17.50;99.90
38866;DHT22;62686;48.984;8.394;2024-02-15T11:11:33;17.50;99.90
38866;DHT22;62686;48.984;8.394;2024-02-15T11:14:22;17.40;99.90
38866;DHT22;62686;48.984;8.394;2024-02-15T11:16:51;17.70;99.90
38866;DHT22;62686;48.984;8.394;2024-02-15T11:19:42;17.90;99.90
38866;DHT22;62686;48.984;8.394;2024-02-15T11:22:15;17.80;99.90
38866;DHT22;62686;48.984;8.394;2024-02-15T11:24:47;17.80;99.90
38866;DHT22;62686;48.984;8.394;2024-02-15T16:08:07;15.80;99.90
38866;DHT22;62686;48.984;8.394;2024-02-15T16:10:35;15.60;99.90
38866;DHT22;62686;48.984;8.394;2024-02-15T16:13:05;15.50;99.90
38866;DHT22;62686;48.984;8.394;2024-02-15T16:15:33;15.40;99.90
38866;DHT22;62686;48.984;8.394;2024-02-15T16:18:03;15.20;99.90
38866;DHT22;62686;48.984;8.394;2024-02-15T16:20:33;15.20;99.90
38866;DHT22;62686;48.984;8.394;2024-02-15T16:23:02;15.10;99.90
38866;DHT22;62686;48.984;8.394;2024-02-15T16:25:34;15.00;99.90
38866;DHT22;62686;48.984;8.394;2024-02-15T16:28:03;14.90;99.90
38866;DHT22;62686;48.984;8.394;2024-02-15T16:30:33;14.90;99.90
38866;DHT22;62686;48.984;8.394;2024-02-15T16:33:02;15.00;99.90
38866;DHT22;62686;48.984;8.394;2024-02-15T16:35:31;14.80;99.90
38866;DHT22;62686;48.984;8.394;2024-02-15T16:38:03;14.70;99.90
38866;DHT22;62686;48.984;8.394;2024-02-15T16:40:35;14.80;99.90
38866;DHT22;62686;48.984;8.394;2024-02-15T16:45:41;14.70;99.90
38866;DHT22;62686;48.984;8.394;2024-02-15T19:20:39;11.80;99.90
38866;DHT22;62686;48.984;8.394;2024-02-15T19:39:21;11.50;99.90
38866;DHT22;62686;48.984;8.394;2024-02-15T19:41:50;11.50;99.90
38866;DHT22;62686;48.984;8.394;2024-02-15T19:44:20;11.40;99.90
38866;DHT22;62686;48.984;8.394;2024-02-15T19:46:49;11.40;99.90
38866;DHT22;62686;48.984;8.394;2024-02-15T19:49:17;11.40;99.90
38866;DHT22;62686;48.984;8.394;2024-02-15T19:51:48;11.20;99.90
38866;DHT22;62686;48.984;8.394;2024-02-15T19:54:17;11.20;99.90
38866;DHT22;62686;48.984;8.394;2024-02-15T19:56:47;11.30;99.90
38866;DHT22;62686;48.984;8.394;2024-02-15T19:59:15;11.30;99.90
38866;DHT22;62686;48.984;8.394;2024-02-15T20:01:44;11.20;99.90
38866;DHT22;62686;48.984;8.394;2024-02-15T20:04:13;11.20;99.90
38866;DHT22;62686;48.984;8.394;2024-02-15T20:06:42;11.10;99.90
38866;DHT22;62686;48.984;8.394;2024-02-15T20:09:12;11.00;99.90
38866;DHT22;62686;48.984;8.394;2024-02-15T20:11:41;11.00;99.90
38866;DHT22;62686;48.984;8.394;2024-02-15T20:14:12;10.90;99.90
38866;DHT22;62686;48.984;8.394;2024-02-15T20:16:42;10.90;99.90
38866;DHT22;62686;48.984;8.394;2024-02-15T20:19:12;10.90;99.90
38866;DHT22;62686;48.984;8.394;2024-02-15T20:21:40;11.10;99.90
38866;DHT22;62686;48.984;8.394;2024-02-15T20:24:09;11.30;99.90
38866;DHT22;62686;48.984;8.394;2024-02-15T20:26:37;11.40;99.90
38866;DHT22;62686;48.984;8.394;2024-02-15T20:29:16;11.50;99.90
38866;DHT22;62686;48.984;8.394;2024-02-15T20:31:46;11.50;99.90
38866;DHT22;62686;48.984;8.394;2024-02-15T20:34:14;11.50;99.90
38866;DHT22;62686;48.984;8.394;2024-02-15T20:36:43;11.50;99.90
38866;DHT22;62686;48.984;8.394;2024-02-15T20:39:13;11.40;99.90
38866;DHT22;62686;48.984;8.394;2024-02-15T20:41:43;11.50;99.90
38866;DHT22;62686;48.984;8.394;2024-02-15T20:44:12;11.50;99.90
38866;DHT22;62686;48.984;8.394;2024-02-15T21:58:36;9.50;99.90
38866;DHT22;62686;48.984;8.394;2024-02-15T22:01:05;9.40;99.90
38866;DHT22;62686;48.984;8.394;2024-02-15T22:03:33;9.40;99.90
38866;DHT22;62686;48.984;8.394;2024-02-15T22:06:02;9.40;99.90
38866;DHT22;62686;48.984;8.394;2024-02-15T22:08:31;9.30;99.90
38866;DHT22;62686;48.984;8.394;2024-02-15T22:11:00;9.30;99.90
38866;DHT22;62686;48.984;8.394;2024-02-15T22:13:29;9.20;99.90
38866;DHT22;62686;48.984;8.394;2024-02-15T22:16:00;9.20;99.90
38866;DHT22;62686;48.984;8.394;2024-02-15T22:18:29;9.10;99.90
38866;DHT22;62686;48.984;8.394;2024-02-15T22:20:58;9.10;99.90
38866;DHT22;62686;48.984;8.394;2024-02-15T22:23:28;9.00;99.90
38866;DHT22;62686;48.984;8.394;2024-02-15T22:25:56;9.10;99.90
38866;DHT22;62686;48.984;8.394;2024-02-15T22:28:24;9.10;99.90
38866;DHT22;62686;48.984;8.394;2024-02-15T22:30:53;9.00;99.90
38866;DHT22;62686;48.984;8.394;2024-02-15T22:33:23;9.10;99.90
38866;DHT22;62686;48.984;8.394;2024-02-15T22:35:53;9.20;99.90
38866;DHT22;62686;48.984;8.394;2024-02-15T22:38:22;9.40;99.90
38866;DHT22;62686;48.984;8.394;2024-02-15T22:40:50;9.50;99.90
38866;DHT22;62686;48.984;8.394;2024-02-15T22:43:22;9.60;99.90
38866;DHT22;62686;48.984;8.394;2024-02-15T22:45:51;9.70;99.90
38866;DHT22;62686;48.984;8.394;2024-02-15T22:48:19;9.70;99.90
38866;DHT22;62686;48.984;8.394;2024-02-15T22:50:49;9.70;99.90
38866;DHT22;62686;48.984;8.394;2024-02-15T22:53:18;9.70;99.90
38866;DHT22;62686;48.984;8.394;2024-02-15T22:55:47;9.80;99.90
38866;DHT22;62686;48.984;8.394;2024-02-15T22:58:15;9.80;99.90
38866;DHT22;62686;48.984;8.394;2024-02-15T23:00:44;9.90;99.90
38866;DHT22;62686;48.984;8.394;2024-02-15T23:03:13;9.90;99.90
38866;DHT22;62686;48.984;8.394;2024-02-15T23:05:43;10.00;99.90
